sensor_id;sensor_type;location;lat;lon;timestamp;pressure;altitude;pressure_sealevel;temperature;humidity
13709;BME280;54933;51.908;7.730;2023-08-07T00:01:20;100293.28;;;24.01;81.25
13709;BME280;54933;51.908;7.730;2023-08-07T00:03:45;100298.47;;;24.02;81.29
13709;BME280;54933;51.908;7.730;2023-08-07T00:06:10;100291.16;;;24.03;81.32
13709;BME280;54933;51.908;7.730;2023-08-07T00:08:36;100285.72;;;24.03;81.19
13709;BME280;54933;51.908;7.730;2023-08-07T00:11:10;100291.16;;;24.03;81.29
13709;BME280;54933;51.908;7.730;2023-08-07T00:13:35;100283.81;;;24.03;81.22
13709;BME280;54933;51.908;7.730;2023-08-07T00:16:01;100285.72;;;24.03;81.22
13709;BME280;54933;51.908;7.730;2023-08-07T00:18:28;100288.19;;;24.04;81.26
13709;BME280;54933;51.908;7.730;2023-08-07T00:20:53;100283.81;;;24.03;81.17
13709;BME280;54933;51.908;7.730;2023-08-07T00:23:18;100290.91;;;24.04;81.14
13709;BME280;54933;51.908;7.730;2023-08-07T00:25:43;100281.09;;;24.03;81.16
13709;BME280;54933;51.908;7.730;2023-08-07T00:28:09;100283.81;;;24.03;81.11
13709;BME280;54933;51.908;7.730;2023-08-07T00:30:34;100290.91;;;24.04;81.11
13709;BME280;54933;51.908;7.730;2023-08-07T00:32:59;100284.63;;;24.04;81.08
13709;BME280;54933;51.908;7.730;2023-08-07T00:35:24;100290.91;;;24.04;80.96
13709;BME280;54933;51.908;7.730;2023-08-07T00:37:50;100277.31;;;24.04;81.06
13709;BME280;54933;51.908;7.730;2023-08-07T00:40:17;100284.38;;;24.05;81.16
13709;BME280;54933;51.908;7.730;2023-08-07T00:42:42;100281.91;;;24.04;81.16
13709;BME280;54933;51.908;7.730;2023-08-07T00:45:08;100278.97;;;24.05;81.17
13709;BME280;54933;51.908;7.730;2023-08-07T00:47:33;100281.66;;;24.05;81.15
13709;BME280;54933;51.908;7.730;2023-08-07T00:49:59;100286.03;;;24.06;81.23
13709;BME280;54933;51.908;7.730;2023-08-07T00:52:25;100288.72;;;24.06;81.12
13709;BME280;54933;51.908;7.730;2023-08-07T00:54:50;100291.44;;;24.06;81.21
13709;BME280;54933;51.908;7.730;2023-08-07T00:57:16;100286.84;;;24.07;81.11
13709;BME280;54933;51.908;7.730;2023-08-07T00:59:42;100287.69;;;24.07;80.61
13709;BME280;54933;51.908;7.730;2023-08-07T01:02:09;100282.25;;;24.07;81.14
13709;BME280;54933;51.908;7.730;2023-08-07T01:04:34;100284.13;;;24.07;81.08
13709;BME280;54933;51.908;7.730;2023-08-07T01:07:00;100283.88;;;24.08;81.13
13709;BME280;54933;51.908;7.730;2023-08-07T01:09:25;100288.50;;;24.08;81.14
13709;BME280;54933;51.908;7.730;2023-08-07T01:14:41;100278.44;;;24.08;81.21
13709;BME280;54933;51.908;7.730;2023-08-07T01:17:15;100287.44;;;24.09;81.11
13709;BME280;54933;51.908;7.730;2023-08-07T01:19:41;100284.72;;;24.09;81.13
13709;BME280;54933;51.908;7.730;2023-08-07T01:22:15;100285.53;;;24.09;80.98
13709;BME280;54933;51.908;7.730;2023-08-07T01:24:48;100280.13;;;24.09;81.08
13709;BME280;54933;51.908;7.730;2023-08-07T01:29:51;100282.00;;;24.09;80.94
13709;BME280;54933;51.908;7.730;2023-08-07T01:32:23;100285.53;;;24.09;80.98
13709;BME280;54933;51.908;7.730;2023-08-07T01:34:50;100294.75;;;24.08;80.93
13709;BME280;54933;51.908;7.730;2023-08-07T01:37:17;100285.53;;;24.09;81.02
13709;BME280;54933;51.908;7.730;2023-08-07T01:39:43;100288.50;;;24.08;80.94
13709;BME280;54933;51.908;7.730;2023-08-07T01:42:09;100294.75;;;24.08;80.99
13709;BME280;54933;51.908;7.730;2023-08-07T01:44:36;100300.16;;;24.08;80.79
13709;BME280;54933;51.908;7.730;2023-08-07T01:47:01;100290.16;;;24.09;80.88
13709;BME280;54933;51.908;7.730;2023-08-07T01:49:27;100300.16;;;24.08;80.79
13709;BME280;54933;51.908;7.730;2023-08-07T01:51:52;100293.69;;;24.09;80.78
13709;BME280;54933;51.908;7.730;2023-08-07T01:54:17;100301.84;;;24.09;80.80
13709;BME280;54933;51.908;7.730;2023-08-07T01:56:42;100294.75;;;24.08;80.78
13709;BME280;54933;51.908;7.730;2023-08-07T01:59:08;100290.97;;;24.09;80.76
13709;BME280;54933;51.908;7.730;2023-08-07T02:01:33;100296.41;;;24.09;80.56
13709;BME280;54933;51.908;7.730;2023-08-07T02:03:58;100293.94;;;24.08;80.58
13709;BME280;54933;51.908;7.730;2023-08-07T02:06:24;100303.72;;;24.09;80.66
13709;BME280;54933;51.908;7.730;2023-08-07T02:08:49;100300.16;;;24.08;80.72
13709;BME280;54933;51.908;7.730;2023-08-07T02:11:14;100303.72;;;24.09;80.67
13709;BME280;54933;51.908;7.730;2023-08-07T02:13:39;100296.66;;;24.08;80.85
13709;BME280;54933;51.908;7.730;2023-08-07T02:16:05;100304.81;;;24.08;80.64
13709;BME280;54933;51.908;7.730;2023-08-07T02:18:30;100307.50;;;24.08;80.77
13709;BME280;54933;51.908;7.730;2023-08-07T02:20:55;100311.03;;;24.08;80.72
13709;BME280;54933;51.908;7.730;2023-08-07T02:23:20;100311.03;;;24.08;80.69
13709;BME280;54933;51.908;7.730;2023-08-07T02:25:46;100307.25;;;24.09;80.67
13709;BME280;54933;51.908;7.730;2023-08-07T02:28:11;100308.06;;;24.10;80.69
13709;BME280;54933;51.908;7.730;2023-08-07T02:30:36;100313.50;;;24.10;80.65
13709;BME280;54933;51.908;7.730;2023-08-07T02:33:02;100316.22;;;24.10;80.74
13709;BME280;54933;51.908;7.730;2023-08-07T02:35:27;100314.31;;;24.10;80.66
13709;BME280;54933;51.908;7.730;2023-08-07T02:37:52;100318.13;;;24.09;80.60
13709;BME280;54933;51.908;7.730;2023-08-07T02:40:18;100319.75;;;24.10;80.78
13709;BME280;54933;51.908;7.730;2023-08-07T02:42:44;100323.31;;;24.11;80.79
13709;BME280;54933;51.908;7.730;2023-08-07T02:45:09;100317.03;;;24.10;80.76
13709;BME280;54933;51.908;7.730;2023-08-07T02:47:35;100319.75;;;24.10;80.79
13709;BME280;54933;51.908;7.730;2023-08-07T02:50:00;100324.94;;;24.12;80.74
13709;BME280;54933;51.908;7.730;2023-08-07T02:52:25;100322.47;;;24.10;80.70
13709;BME280;54933;51.908;7.730;2023-08-07T02:54:50;100315.97;;;24.11;80.66
13709;BME280;54933;51.908;7.730;2023-08-07T02:57:16;100321.38;;;24.11;80.67
13709;BME280;54933;51.908;7.730;2023-08-07T02:59:41;100324.09;;;24.11;80.71
13709;BME280;54933;51.908;7.730;2023-08-07T03:02:06;100321.38;;;24.11;80.51
13709;BME280;54933;51.908;7.730;2023-08-07T03:04:31;100325.75;;;24.13;80.54
13709;BME280;54933;51.908;7.730;2023-08-07T03:06:57;100324.09;;;24.11;80.55
13709;BME280;54933;51.908;7.730;2023-08-07T03:09:22;100332.25;;;24.11;80.65
13709;BME280;54933;51.908;7.730;2023-08-07T03:11:47;100326.81;;;24.11;80.51
13709;BME280;54933;51.908;7.730;2023-08-07T03:14:12;100323.06;;;24.13;80.45
13709;BME280;54933;51.908;7.730;2023-08-07T03:16:38;100315.97;;;24.11;80.73
13709;BME280;54933;51.908;7.730;2023-08-07T03:19:03;100314.31;;;24.10;80.67
13709;BME280;54933;51.908;7.730;2023-08-07T03:21:28;100315.16;;;24.11;80.65
13709;BME280;54933;51.908;7.730;2023-08-07T03:23:53;100311.59;;;24.10;80.75
13709;BME280;54933;51.908;7.730;2023-08-07T03:26:19;100308.06;;;24.10;80.76
13709;BME280;54933;51.908;7.730;2023-08-07T03:28:44;100311.59;;;24.10;80.50
13709;BME280;54933;51.908;7.730;2023-08-07T03:31:11;100309.97;;;24.09;80.77
13709;BME280;54933;51.908;7.730;2023-08-07T03:33:37;100311.59;;;24.10;80.50
13709;BME280;54933;51.908;7.730;2023-08-07T03:36:02;100311.03;;;24.08;80.57
13709;BME280;54933;51.908;7.730;2023-08-07T03:38:27;100307.25;;;24.09;80.85
13709;BME280;54933;51.908;7.730;2023-08-07T03:40:53;100318.91;;;24.10;80.51
13709;BME280;54933;51.908;7.730;2023-08-07T03:43:18;100317.28;;;24.09;80.60
13709;BME280;54933;51.908;7.730;2023-08-07T03:45:43;100321.63;;;24.10;80.34
13709;BME280;54933;51.908;7.730;2023-08-07T03:48:08;100318.13;;;24.09;80.61
13709;BME280;54933;51.908;7.730;2023-08-07T03:50:34;100328.16;;;24.09;80.48
13709;BME280;54933;51.908;7.730;2023-08-07T03:53:03;100323.56;;;24.09;80.46
13709;BME280;54933;51.908;7.730;2023-08-07T03:55:29;100328.16;;;24.09;80.47
13709;BME280;54933;51.908;7.730;2023-08-07T03:57:55;100319.16;;;24.08;80.60
13709;BME280;54933;51.908;7.730;2023-08-07T04:00:20;100321.88;;;24.08;80.67
13709;BME280;54933;51.908;7.730;2023-08-07T04:02:46;100321.88;;;24.08;80.61
13709;BME280;54933;51.908;7.730;2023-08-07T04:05:11;100327.47;;;24.02;80.72
13709;BME280;54933;51.908;7.730;2023-08-07T04:07:36;100328.38;;;23.91;80.91
13709;BME280;54933;51.908;7.730;2023-08-07T04:10:02;100325.31;;;23.87;81.30
13709;BME280;54933;51.908;7.730;2023-08-07T04:12:27;100329.91;;;23.87;81.58
13709;BME280;54933;51.908;7.730;2023-08-07T04:14:52;100323.69;;;23.86;81.59
13709;BME280;54933;51.908;7.730;2023-08-07T04:17:17;100325.81;;;23.84;81.79
13709;BME280;54933;51.908;7.730;2023-08-07T04:19:43;100320.06;;;23.81;81.95
13709;BME280;54933;51.908;7.730;2023-08-07T04:22:08;100323.59;;;23.81;82.27
13709;BME280;54933;51.908;7.730;2023-08-07T04:24:33;100332.88;;;23.85;82.17
13709;BME280;54933;51.908;7.730;2023-08-07T04:26:58;100336.16;;;23.87;82.18
13709;BME280;54933;51.908;7.730;2023-08-07T04:29:24;100342.19;;;23.89;82.08
13709;BME280;54933;51.908;7.730;2023-08-07T04:31:49;100342.19;;;23.89;82.09
13709;BME280;54933;51.908;7.730;2023-08-07T04:34:15;100345.88;;;23.83;81.55
13709;BME280;54933;51.908;7.730;2023-08-07T04:36:40;100344.81;;;23.84;81.72
13709;BME280;54933;51.908;7.730;2023-08-07T04:39:05;100346.44;;;23.85;81.66
13709;BME280;54933;51.908;7.730;2023-08-07T04:41:30;100347.03;;;23.87;81.72
13709;BME280;54933;51.908;7.730;2023-08-07T04:43:56;100356.00;;;23.88;81.84
13709;BME280;54933;51.908;7.730;2023-08-07T04:46:21;100353.03;;;23.89;81.77
13709;BME280;54933;51.908;7.730;2023-08-07T04:48:46;100342.59;;;23.81;81.71
13709;BME280;54933;51.908;7.730;2023-08-07T04:51:12;100352.38;;;23.82;81.54
13709;BME280;54933;51.908;7.730;2023-08-07T04:53:38;100350.22;;;23.84;81.22
13709;BME280;54933;51.908;7.730;2023-08-07T04:56:03;100352.38;;;23.82;81.51
13709;BME280;54933;51.908;7.730;2023-08-07T04:58:29;100345.31;;;23.81;81.50
13709;BME280;54933;51.908;7.730;2023-08-07T05:00:57;100345.06;;;23.83;81.52
13709;BME280;54933;51.908;7.730;2023-08-07T05:03:23;100345.63;;;23.85;81.49
13709;BME280;54933;51.908;7.730;2023-08-07T05:05:49;100352.94;;;23.84;81.41
13709;BME280;54933;51.908;7.730;2023-08-07T05:08:14;100354.91;;;23.89;81.41
13709;BME280;54933;51.908;7.730;2023-08-07T05:10:39;100358.22;;;23.91;81.12
13709;BME280;54933;51.908;7.730;2023-08-07T05:13:05;100370.81;;;23.52;78.23
13709;BME280;54933;51.908;7.730;2023-08-07T05:15:30;100362.41;;;23.26;76.06
13709;BME280;54933;51.908;7.730;2023-08-07T05:17:56;100366.31;;;23.30;75.50
13709;BME280;54933;51.908;7.730;2023-08-07T05:20:22;100368.38;;;23.51;76.06
13709;BME280;54933;51.908;7.730;2023-08-07T05:22:47;100367.47;;;23.62;76.60
13709;BME280;54933;51.908;7.730;2023-08-07T05:25:13;100372.75;;;23.68;76.84
13709;BME280;54933;51.908;7.730;2023-08-07T05:27:42;100384.75;;;23.72;76.98
13709;BME280;54933;51.908;7.730;2023-08-07T05:30:07;100374.47;;;23.74;77.27
13709;BME280;54933;51.908;7.730;2023-08-07T05:32:33;100383.19;;;23.76;77.35
13709;BME280;54933;51.908;7.730;2023-08-07T05:34:58;100376.13;;;23.75;77.44
13709;BME280;54933;51.908;7.730;2023-08-07T05:37:24;100388.78;;;23.70;77.83
13709;BME280;54933;51.908;7.730;2023-08-07T05:39:49;100388.19;;;23.68;78.10
13709;BME280;54933;51.908;7.730;2023-08-07T05:42:14;100396.56;;;23.66;78.29
13709;BME280;54933;51.908;7.730;2023-08-07T05:44:39;100394.69;;;23.67;78.48
13709;BME280;54933;51.908;7.730;2023-08-07T05:47:05;100396.34;;;23.68;78.77
13709;BME280;54933;51.908;7.730;2023-08-07T05:49:30;100405.88;;;23.70;78.89
13709;BME280;54933;51.908;7.730;2023-08-07T05:51:56;100397.75;;;23.70;79.07
13709;BME280;54933;51.908;7.730;2023-08-07T05:54:21;100402.09;;;23.71;79.02
13709;BME280;54933;51.908;7.730;2023-08-07T05:56:46;100394.53;;;23.73;79.21
13709;BME280;54933;51.908;7.730;2023-08-07T05:59:12;100403.44;;;23.69;79.21
13709;BME280;54933;51.908;7.730;2023-08-07T06:01:37;100404.22;;;23.69;79.44
13709;BME280;54933;51.908;7.730;2023-08-07T06:04:02;100402.34;;;23.70;79.59
13709;BME280;54933;51.908;7.730;2023-08-07T06:06:28;100406.69;;;23.71;79.85
13709;BME280;54933;51.908;7.730;2023-08-07T06:08:54;100405.88;;;23.70;79.81
13709;BME280;54933;51.908;7.730;2023-08-07T06:11:19;100402.09;;;23.71;80.15
13709;BME280;54933;51.908;7.730;2023-08-07T06:13:44;100408.69;;;23.75;79.87
13709;BME280;54933;51.908;7.730;2023-08-07T06:16:10;100416.59;;;23.77;79.90
13709;BME280;54933;51.908;7.730;2023-08-07T06:18:36;100417.16;;;23.79;79.94
13709;BME280;54933;51.908;7.730;2023-08-07T06:21:01;100425.03;;;23.80;79.95
13709;BME280;54933;51.908;7.730;2023-08-07T06:23:27;100423.50;;;23.84;79.86
13709;BME280;54933;51.908;7.730;2023-08-07T06:25:52;100418.06;;;23.84;79.89
13709;BME280;54933;51.908;7.730;2023-08-07T06:28:17;100422.19;;;23.87;79.77
13709;BME280;54933;51.908;7.730;2023-08-07T06:30:43;100420.28;;;23.87;79.89
13709;BME280;54933;51.908;7.730;2023-08-07T06:33:08;100408.94;;;23.90;79.74
13709;BME280;54933;51.908;7.730;2023-08-07T06:35:40;100424.97;;;23.92;79.54
13709;BME280;54933;51.908;7.730;2023-08-07T06:38:05;100413.31;;;23.91;79.57
13709;BME280;54933;51.908;7.730;2023-08-07T06:40:31;100413.88;;;23.93;79.51
13709;BME280;54933;51.908;7.730;2023-08-07T06:42:56;100416.59;;;23.93;79.53
13709;BME280;54933;51.908;7.730;2023-08-07T06:45:21;100424.53;;;23.95;79.44
13709;BME280;54933;51.908;7.730;2023-08-07T06:47:47;100428.03;;;23.95;79.53
13709;BME280;54933;51.908;7.730;2023-08-07T06:50:13;100437.25;;;23.94;79.33
13709;BME280;54933;51.908;7.730;2023-08-07T06:52:38;100435.53;;;23.88;79.54
13709;BME280;54933;51.908;7.730;2023-08-07T06:55:04;100440.47;;;23.91;79.51
13709;BME280;54933;51.908;7.730;2023-08-07T06:57:29;100440.81;;;23.95;79.48
13709;BME280;54933;51.908;7.730;2023-08-07T06:59:55;100436.81;;;23.97;79.36
13709;BME280;54933;51.908;7.730;2023-08-07T07:02:20;100436.81;;;23.97;79.47
13709;BME280;54933;51.908;7.730;2023-08-07T07:04:45;100432.41;;;23.96;79.29
13709;BME280;54933;51.908;7.730;2023-08-07T07:07:10;100433.22;;;23.97;79.50
13709;BME280;54933;51.908;7.730;2023-08-07T07:09:36;100435.94;;;23.97;79.21
13709;BME280;54933;51.908;7.730;2023-08-07T07:12:01;100445.78;;;23.98;78.99
13709;BME280;54933;51.908;7.730;2023-08-07T07:14:26;100443.06;;;23.98;79.20
13709;BME280;54933;51.908;7.730;2023-08-07T07:16:52;100452.00;;;23.98;79.35
13709;BME280;54933;51.908;7.730;2023-08-07T07:19:17;100448.25;;;23.99;79.26
13709;BME280;54933;51.908;7.730;2023-08-07T07:21:43;100464.53;;;23.99;79.13
13709;BME280;54933;51.908;7.730;2023-08-07T07:24:08;100457.19;;;24.00;79.24
13709;BME280;54933;51.908;7.730;2023-08-07T07:26:34;100459.91;;;24.00;79.24
13709;BME280;54933;51.908;7.730;2023-08-07T07:28:59;100459.09;;;23.99;79.24
13709;BME280;54933;51.908;7.730;2023-08-07T07:31:24;100457.19;;;24.00;79.59
13709;BME280;54933;51.908;7.730;2023-08-07T07:33:49;100461.81;;;23.99;79.18
13709;BME280;54933;51.908;7.730;2023-08-07T07:36:16;100466.16;;;24.00;79.11
13709;BME280;54933;51.908;7.730;2023-08-07T07:38:42;100460.75;;;24.00;79.24
13709;BME280;54933;51.908;7.730;2023-08-07T07:41:08;100467.00;;;24.01;79.01
13709;BME280;54933;51.908;7.730;2023-08-07T07:43:36;100462.41;;;24.01;79.13
13709;BME280;54933;51.908;7.730;2023-08-07T07:46:02;100471.09;;;24.03;78.74
13709;BME280;54933;51.908;7.730;2023-08-07T07:48:27;100459.44;;;24.03;79.02
13709;BME280;54933;51.908;7.730;2023-08-07T07:50:58;100467.34;;;24.04;79.05
13709;BME280;54933;51.908;7.730;2023-08-07T07:53:23;100471.09;;;24.03;79.05
13709;BME280;54933;51.908;7.730;2023-08-07T07:55:49;100472.75;;;24.04;79.14
13709;BME280;54933;51.908;7.730;2023-08-07T07:58:14;100472.75;;;24.04;79.15
13709;BME280;54933;51.908;7.730;2023-08-07T08:00:39;100479.00;;;24.05;79.17
13709;BME280;54933;51.908;7.730;2023-08-07T08:03:05;100487.97;;;24.05;79.18
13709;BME280;54933;51.908;7.730;2023-08-07T08:05:30;100498.00;;;24.05;79.20
13709;BME280;54933;51.908;7.730;2023-08-07T08:07:55;100496.94;;;24.06;79.38
13709;BME280;54933;51.908;7.730;2023-08-07T08:10:21;100503.19;;;24.06;79.32
13709;BME280;54933;51.908;7.730;2023-08-07T08:12:46;100501.53;;;24.05;79.33
13709;BME280;54933;51.908;7.730;2023-08-07T08:15:11;100508.59;;;24.06;79.28
13709;BME280;54933;51.908;7.730;2023-08-07T08:17:36;100516.75;;;24.06;79.37
13709;BME280;54933;51.908;7.730;2023-08-07T08:20:02;100515.72;;;24.07;79.33
13709;BME280;54933;51.908;7.730;2023-08-07T08:22:27;100526.56;;;24.07;79.29
13709;BME280;54933;51.908;7.730;2023-08-07T08:24:53;100515.72;;;24.07;79.29
13709;BME280;54933;51.908;7.730;2023-08-07T08:27:18;100522.78;;;24.08;79.57
13709;BME280;54933;51.908;7.730;2023-08-07T08:29:43;100521.97;;;24.08;79.38
13709;BME280;54933;51.908;7.730;2023-08-07T08:32:10;100528.19;;;24.08;79.29
13709;BME280;54933;51.908;7.730;2023-08-07T08:34:35;100529.88;;;24.09;79.20
13709;BME280;54933;51.908;7.730;2023-08-07T08:37:01;100532.59;;;24.09;79.41
13709;BME280;54933;51.908;7.730;2023-08-07T08:39:26;100532.59;;;24.09;79.43
13709;BME280;54933;51.908;7.730;2023-08-07T08:41:51;100530.91;;;24.08;79.36
13709;BME280;54933;51.908;7.730;2023-08-07T08:44:19;100527.75;;;24.00;79.49
13709;BME280;54933;51.908;7.730;2023-08-07T08:46:45;100533.09;;;23.95;79.76
13709;BME280;54933;51.908;7.730;2023-08-07T08:49:16;100528.13;;;23.92;80.12
13709;BME280;54933;51.908;7.730;2023-08-07T08:51:44;100545.47;;;23.91;80.28
13709;BME280;54933;51.908;7.730;2023-08-07T08:54:09;100546.81;;;23.88;80.27
13709;BME280;54933;51.908;7.730;2023-08-07T08:56:36;100544.66;;;23.90;80.51
13709;BME280;54933;51.908;7.730;2023-08-07T08:59:02;100554.69;;;23.90;80.43
13709;BME280;54933;51.908;7.730;2023-08-07T09:01:28;100565.78;;;23.88;80.46
13709;BME280;54933;51.908;7.730;2023-08-07T09:03:55;100564.47;;;23.91;80.64
13709;BME280;54933;51.908;7.730;2023-08-07T09:06:21;100576.16;;;23.91;80.57
13709;BME280;54933;51.908;7.730;2023-08-07T09:08:47;100582.41;;;23.92;80.45
13709;BME280;54933;51.908;7.730;2023-08-07T09:11:15;100564.22;;;23.92;80.34
13709;BME280;54933;51.908;7.730;2023-08-07T09:13:42;100576.72;;;23.93;80.28
13709;BME280;54933;51.908;7.730;2023-08-07T09:16:08;100577.31;;;23.95;80.27
13709;BME280;54933;51.908;7.730;2023-08-07T09:18:35;100580.88;;;23.96;80.21
13709;BME280;54933;51.908;7.730;2023-08-07T09:21:00;100583.81;;;23.94;80.09
13709;BME280;54933;51.908;7.730;2023-08-07T09:23:26;100575.22;;;23.97;80.12
13709;BME280;54933;51.908;7.730;2023-08-07T09:26:04;100584.41;;;23.96;80.10
13709;BME280;54933;51.908;7.730;2023-08-07T09:28:31;100580.41;;;23.99;80.10
13709;BME280;54933;51.908;7.730;2023-08-07T09:30:58;100573.09;;;23.99;79.96
13709;BME280;54933;51.908;7.730;2023-08-07T09:33:28;100584.75;;;24.00;79.80
13709;BME280;54933;51.908;7.730;2023-08-07T09:35:58;100592.69;;;24.01;79.83
13709;BME280;54933;51.908;7.730;2023-08-07T09:38:24;100597.28;;;24.01;79.89
13709;BME280;54933;51.908;7.730;2023-08-07T09:40:49;100594.34;;;24.02;79.60
13709;BME280;54933;51.908;7.730;2023-08-07T09:43:21;100610.38;;;24.04;79.62
13709;BME280;54933;51.908;7.730;2023-08-07T09:45:48;100599.28;;;24.05;79.64
13709;BME280;54933;51.908;7.730;2023-08-07T09:48:20;100606.34;;;24.06;79.50
13709;BME280;54933;51.908;7.730;2023-08-07T09:50:47;100611.78;;;24.06;79.38
13709;BME280;54933;51.908;7.730;2023-08-07T09:53:12;100617.19;;;24.06;79.39
13709;BME280;54933;51.908;7.730;2023-08-07T09:55:38;100625.94;;;24.08;79.33
13709;BME280;54933;51.908;7.730;2023-08-07T09:58:07;100629.72;;;24.07;79.26
13709;BME280;54933;51.908;7.730;2023-08-07T10:00:36;100628.66;;;24.08;79.31
13709;BME280;54933;51.908;7.730;2023-08-07T10:03:01;100633.03;;;24.09;79.24
13709;BME280;54933;51.908;7.730;2023-08-07T10:05:27;100622.19;;;24.09;79.35
13709;BME280;54933;51.908;7.730;2023-08-07T10:07:53;100633.84;;;24.10;78.88
13709;BME280;54933;51.908;7.730;2023-08-07T10:10:20;100634.66;;;24.10;79.15
13709;BME280;54933;51.908;7.730;2023-08-07T10:12:46;100641.75;;;24.11;78.90
13709;BME280;54933;51.908;7.730;2023-08-07T10:15:13;100647.16;;;24.11;79.28
13709;BME280;54933;51.908;7.730;2023-08-07T10:17:39;100636.31;;;24.11;79.24
13709;BME280;54933;51.908;7.730;2023-08-07T10:20:05;100637.16;;;24.12;79.11
13709;BME280;54933;51.908;7.730;2023-08-07T10:22:31;100642.34;;;24.13;79.06
13709;BME280;54933;51.908;7.730;2023-08-07T10:25:01;100650.47;;;24.13;79.19
13709;BME280;54933;51.908;7.730;2023-08-07T10:27:27;100658.16;;;24.05;79.03
13709;BME280;54933;51.908;7.730;2023-08-07T10:29:55;100645.19;;;23.95;79.49
13709;BME280;54933;51.908;7.730;2023-08-07T10:32:24;100652.72;;;23.93;79.70
13709;BME280;54933;51.908;7.730;2023-08-07T10:34:50;100662.53;;;23.94;79.91
13709;BME280;54933;51.908;7.730;2023-08-07T10:40:10;100651.69;;;23.94;80.08
13709;BME280;54933;51.908;7.730;2023-08-07T10:43:12;100658.75;;;23.95;80.37
13709;BME280;54933;51.908;7.730;2023-08-07T10:45:38;100657.69;;;23.96;80.42
13709;BME280;54933;51.908;7.730;2023-08-07T10:48:07;100666.88;;;23.95;80.36
13709;BME280;54933;51.908;7.730;2023-08-07T10:50:35;100675.88;;;23.96;80.52
13709;BME280;54933;51.908;7.730;2023-08-07T10:53:02;100674.69;;;23.92;80.23
13709;BME280;54933;51.908;7.730;2023-08-07T10:55:52;100693.13;;;23.90;80.69
13709;BME280;54933;51.908;7.730;2023-08-07T10:58:30;100684.38;;;23.88;80.68
13709;BME280;54933;51.908;7.730;2023-08-07T11:04:05;100684.13;;;23.89;80.55
13709;BME280;54933;51.908;7.730;2023-08-07T11:06:33;100686.84;;;23.89;80.52
13709;BME280;54933;51.908;7.730;2023-08-07T11:09:02;100686.38;;;23.92;80.42
13709;BME280;54933;51.908;7.730;2023-08-07T11:14:09;100679.88;;;23.93;80.36
13709;BME280;54933;51.908;7.730;2023-08-07T11:16:35;100674.44;;;23.93;80.26
13709;BME280;54933;51.908;7.730;2023-08-07T11:19:01;100678.59;;;23.96;80.15
13709;BME280;54933;51.908;7.730;2023-08-07T11:21:26;100663.13;;;23.96;80.05
13709;BME280;54933;51.908;7.730;2023-08-07T11:23:52;100671.88;;;23.98;79.89
13709;BME280;54933;51.908;7.730;2023-08-07T11:26:18;100676.25;;;23.99;79.78
13709;BME280;54933;51.908;7.730;2023-08-07T11:28:47;100673.53;;;23.99;79.88
13709;BME280;54933;51.908;7.730;2023-08-07T11:31:12;100676.00;;;24.01;79.59
13709;BME280;54933;51.908;7.730;2023-08-07T11:33:38;100685.56;;;24.03;79.66
13709;BME280;54933;51.908;7.730;2023-08-07T11:36:10;100685.31;;;24.05;79.53
13709;BME280;54933;51.908;7.730;2023-08-07T11:38:38;100686.16;;;24.05;79.20
13709;BME280;54933;51.908;7.730;2023-08-07T11:41:04;100685.66;;;24.08;79.44
13709;BME280;54933;51.908;7.730;2023-08-07T11:43:31;100693.56;;;24.10;79.06
13709;BME280;54933;51.908;7.730;2023-08-07T11:45:58;100688.97;;;24.10;79.22
13709;BME280;54933;51.908;7.730;2023-08-07T11:48:26;100696.03;;;24.11;79.19
13709;BME280;54933;51.908;7.730;2023-08-07T11:50:52;100697.72;;;24.13;79.17
13709;BME280;54933;51.908;7.730;2023-08-07T11:53:18;100693.91;;;24.13;79.13
13709;BME280;54933;51.908;7.730;2023-08-07T11:55:56;100701.03;;;24.15;78.99
13709;BME280;54933;51.908;7.730;2023-08-07T11:58:22;100699.94;;;24.16;78.91
13709;BME280;54933;51.908;7.730;2023-08-07T12:00:49;100704.28;;;24.17;79.00
13709;BME280;54933;51.908;7.730;2023-08-07T12:03:25;100717.63;;;24.18;78.89
13709;BME280;54933;51.908;7.730;2023-08-07T12:05:51;100710.31;;;24.19;78.95
13709;BME280;54933;51.908;7.730;2023-08-07T12:08:16;100707.59;;;24.19;79.43
13709;BME280;54933;51.908;7.730;2023-08-07T12:10:42;100713.03;;;24.19;79.03
13709;BME280;54933;51.908;7.730;2023-08-07T12:13:12;100720.09;;;24.20;78.77
13709;BME280;54933;51.908;7.730;2023-08-07T12:15:37;100732.63;;;24.21;78.78
13709;BME280;54933;51.908;7.730;2023-08-07T12:18:02;100726.38;;;24.20;78.76
13709;BME280;54933;51.908;7.730;2023-08-07T12:20:28;100725.53;;;24.20;78.84
13709;BME280;54933;51.908;7.730;2023-08-07T12:22:54;100733.47;;;24.21;78.96
13709;BME280;54933;51.908;7.730;2023-08-07T12:25:19;100746.22;;;24.21;78.68
13709;BME280;54933;51.908;7.730;2023-08-07T12:27:44;100748.94;;;24.21;78.73
13709;BME280;54933;51.908;7.730;2023-08-07T12:30:13;100747.25;;;24.20;78.49
13709;BME280;54933;51.908;7.730;2023-08-07T12:32:38;100742.66;;;24.20;78.72
13709;BME280;54933;51.908;7.730;2023-08-07T12:35:04;100757.06;;;24.21;78.60
13709;BME280;54933;51.908;7.730;2023-08-07T12:37:33;100759.78;;;24.21;78.73
13709;BME280;54933;51.908;7.730;2023-08-07T12:39:58;100755.19;;;24.21;78.46
13709;BME280;54933;51.908;7.730;2023-08-07T12:42:23;100766.88;;;24.22;78.42
13709;BME280;54933;51.908;7.730;2023-08-07T12:44:48;100766.88;;;24.22;78.43
13709;BME280;54933;51.908;7.730;2023-08-07T12:47:14;100771.50;;;24.21;78.38
13709;BME280;54933;51.908;7.730;2023-08-07T12:49:39;100766.88;;;24.22;78.26
13709;BME280;54933;51.908;7.730;2023-08-07T12:52:07;100773.13;;;24.22;78.15
13709;BME280;54933;51.908;7.730;2023-08-07T12:54:32;100769.56;;;24.22;78.19
13709;BME280;54933;51.908;7.730;2023-08-07T12:56:58;100774.19;;;24.21;78.10
13709;BME280;54933;51.908;7.730;2023-08-07T12:59:23;100762.25;;;24.22;78.15